NOZ390 ENGM-ENSB
Flight info
| Callsign | NOZ390 |
|---|---|
| Flight time | 2h 38m |
| Altitude | 37000 |
| Route | RIBBE DCT GIGNI DCT SOMUB DCT OMEXA M604 INPAR |
| Aircraft | B738/M-SDE2E3FGHIRWXY/LB1 |
Departure
| Time | 2026-05-06 22:57 |
|---|---|
| Airport | Oslo-Gardermoen International Airport (ENGM) |
Arrival
| Time | 2026-05-07 01:36 |
|---|---|
| Airport | Svalbard Airport, Longyear (ENSB) |
| Time | Latitude | Longitude | Altitude | Speed | Heading |
|---|---|---|---|---|---|
| 2026-05-06 22:07 | 60.19474 | 11.10161 | 676 ft | 0 kts | 231° |
| 2026-05-06 22:42 | 60.19480 | 11.10175 | 676 ft | 3 kts | 231° |
| 2026-05-06 22:42 | 60.19491 | 11.10204 | 676 ft | 3 kts | 232° |
| 2026-05-06 22:42 | 60.19504 | 11.10241 | 681 ft | 3 kts | 240° |
| 2026-05-06 22:42 | 60.19513 | 11.10273 | 680 ft | 3 kts | 241° |
| 2026-05-06 22:43 | 60.19524 | 11.10313 | 677 ft | 3 kts | 241° |
| 2026-05-06 22:43 | 60.19534 | 11.10347 | 676 ft | 2 kts | 240° |
| 2026-05-06 22:43 | 60.19540 | 11.10385 | 677 ft | 3 kts | 282° |
| 2026-05-06 22:43 | 60.19535 | 11.10422 | 677 ft | 3 kts | 286° |
| 2026-05-06 22:44 | 60.19529 | 11.10466 | 677 ft | 3 kts | 286° |
| 2026-05-06 22:44 | 60.19528 | 11.10468 | 677 ft | 1 kts | 286° |
| 2026-05-06 22:46 | 60.19533 | 11.10439 | 675 ft | 4 kts | 289° |
| 2026-05-06 22:46 | 60.19549 | 11.10402 | 679 ft | 4 kts | 328° |
| 2026-05-06 22:46 | 60.19576 | 11.10399 | 682 ft | 5 kts | 13° |
| 2026-05-06 22:47 | 60.19613 | 11.10418 | 683 ft | 7 kts | 14° |
| 2026-05-06 22:47 | 60.19669 | 11.10450 | 680 ft | 9 kts | 16° |
| 2026-05-06 22:47 | 60.19738 | 11.10489 | 683 ft | 10 kts | 16° |
| 2026-05-06 22:47 | 60.19805 | 11.10527 | 681 ft | 10 kts | 14° |
| 2026-05-06 22:48 | 60.19865 | 11.10558 | 682 ft | 8 kts | 2° |
| 2026-05-06 22:48 | 60.19903 | 11.10489 | 683 ft | 8 kts | 287° |
| 2026-05-06 22:48 | 60.19920 | 11.10374 | 684 ft | 10 kts | 286° |
| 2026-05-06 22:48 | 60.19943 | 11.10216 | 679 ft | 14 kts | 286° |
| 2026-05-06 22:49 | 60.19968 | 11.10032 | 679 ft | 13 kts | 287° |
| 2026-05-06 22:49 | 60.19994 | 11.09857 | 683 ft | 13 kts | 286° |
| 2026-05-06 22:49 | 60.20018 | 11.09687 | 682 ft | 13 kts | 286° |
| 2026-05-06 22:49 | 60.20043 | 11.09516 | 681 ft | 14 kts | 285° |
| 2026-05-06 22:50 | 60.20069 | 11.09329 | 677 ft | 14 kts | 286° |
| 2026-05-06 22:50 | 60.20096 | 11.09149 | 679 ft | 13 kts | 288° |
| 2026-05-06 22:50 | 60.20119 | 11.08987 | 678 ft | 10 kts | 284° |
| 2026-05-06 22:50 | 60.20110 | 11.08869 | 680 ft | 9 kts | 210° |
| 2026-05-06 22:51 | 60.20045 | 11.08828 | 679 ft | 12 kts | 196° |
| 2026-05-06 22:51 | 60.19938 | 11.08767 | 679 ft | 19 kts | 196° |
| 2026-05-06 22:51 | 60.19812 | 11.08693 | 678 ft | 19 kts | 197° |
| 2026-05-06 22:51 | 60.19691 | 11.08623 | 678 ft | 18 kts | 196° |
| 2026-05-06 22:52 | 60.19572 | 11.08555 | 677 ft | 17 kts | 195° |
| 2026-05-06 22:52 | 60.19458 | 11.08488 | 676 ft | 17 kts | 196° |
| 2026-05-06 22:52 | 60.19347 | 11.08426 | 675 ft | 16 kts | 195° |
| 2026-05-06 22:52 | 60.19241 | 11.08365 | 673 ft | 16 kts | 195° |
| 2026-05-06 22:53 | 60.19139 | 11.08306 | 672 ft | 15 kts | 197° |
| 2026-05-06 22:53 | 60.19041 | 11.08250 | 672 ft | 14 kts | 197° |
| 2026-05-06 22:53 | 60.18941 | 11.08192 | 671 ft | 17 kts | 196° |
| 2026-05-06 22:53 | 60.18826 | 11.08125 | 671 ft | 17 kts | 196° |
| 2026-05-06 22:54 | 60.18713 | 11.08059 | 670 ft | 17 kts | 196° |
| 2026-05-06 22:54 | 60.18607 | 11.07998 | 669 ft | 13 kts | 196° |
| 2026-05-06 22:54 | 60.18540 | 11.07933 | 667 ft | 11 kts | 244° |
| 2026-05-06 22:54 | 60.18552 | 11.07773 | 664 ft | 13 kts | 285° |
| 2026-05-06 22:55 | 60.18572 | 11.07632 | 663 ft | 9 kts | 285° |
| 2026-05-06 22:55 | 60.18588 | 11.07516 | 664 ft | 9 kts | 284° |
| 2026-05-06 22:55 | 60.18627 | 11.07450 | 665 ft | 8 kts | 5° |
| 2026-05-06 22:55 | 60.18682 | 11.07480 | 666 ft | 8 kts | 16° |
| 2026-05-06 22:56 | 60.18735 | 11.07510 | 666 ft | 8 kts | 16° |
| 2026-05-06 22:56 | 60.18784 | 11.07539 | 666 ft | 21 kts | 16° |
| 2026-05-06 22:56 | 60.19124 | 11.07733 | 669 ft | 80 kts | 16° |
| 2026-05-06 22:56 | 60.19839 | 11.08145 | 674 ft | 131 kts | 15° |
| 2026-05-06 22:57 | 60.20828 | 11.08718 | 835 ft | 155 kts | 17° |
| 2026-05-06 22:57 | 60.21839 | 11.09496 | 1270 ft | 166 kts | 23° |
| 2026-05-06 22:57 | 60.22962 | 11.10381 | 1747 ft | 175 kts | 15° |
| 2026-05-06 22:57 | 60.24114 | 11.11020 | 2519 ft | 169 kts | 12° |
| 2026-05-06 22:58 | 60.25338 | 11.11529 | 2847 ft | 192 kts | 2° |
| 2026-05-06 22:58 | 60.26725 | 11.11242 | 3046 ft | 210 kts | 350° |
| 2026-05-06 22:58 | 60.28213 | 11.10765 | 3237 ft | 227 kts | 351° |
| 2026-05-06 22:58 | 60.29811 | 11.10267 | 3553 ft | 240 kts | 350° |
| 2026-05-06 22:59 | 60.31533 | 11.09939 | 3830 ft | 256 kts | 1° |
| 2026-05-06 22:59 | 60.33331 | 11.10243 | 4489 ft | 261 kts | 6° |
| 2026-05-06 22:59 | 60.35148 | 11.10694 | 5178 ft | 265 kts | 6° |
| 2026-05-06 22:59 | 60.37000 | 11.11168 | 5841 ft | 270 kts | 6° |
| 2026-05-06 23:00 | 60.38887 | 11.11640 | 6540 ft | 274 kts | 6° |
| 2026-05-06 23:00 | 60.40794 | 11.12103 | 7198 ft | 277 kts | 5° |
| 2026-05-06 23:00 | 60.42716 | 11.12557 | 7874 ft | 280 kts | 5° |
| 2026-05-06 23:00 | 60.44633 | 11.12999 | 8540 ft | 282 kts | 5° |
| 2026-05-06 23:01 | 60.46599 | 11.13445 | 9224 ft | 285 kts | 4° |
| 2026-05-06 23:01 | 60.48584 | 11.13890 | 9898 ft | 288 kts | 4° |
| 2026-05-06 23:01 | 60.50603 | 11.14338 | 10331 ft | 299 kts | 3° |
| 2026-05-06 23:01 | 60.52741 | 11.14805 | 10502 ft | 319 kts | 3° |
| 2026-05-06 23:02 | 60.54992 | 11.15297 | 10875 ft | 330 kts | 3° |
| 2026-05-06 23:02 | 60.57298 | 11.15803 | 11397 ft | 336 kts | 3° |
| 2026-05-06 23:02 | 60.59628 | 11.16309 | 12067 ft | 337 kts | 3° |
| 2026-05-06 23:02 | 60.61967 | 11.16826 | 12765 ft | 339 kts | 3° |
| 2026-05-06 23:03 | 60.64321 | 11.17352 | 13471 ft | 342 kts | 2° |
| 2026-05-06 23:03 | 60.66709 | 11.17881 | 14123 ft | 345 kts | 2° |
| 2026-05-06 23:03 | 60.69116 | 11.18413 | 14706 ft | 350 kts | 1° |
| 2026-05-06 23:03 | 60.71554 | 11.18950 | 15288 ft | 354 kts | 0° |
| 2026-05-06 23:04 | 60.73988 | 11.19487 | 15867 ft | 359 kts | 0° |
| 2026-05-06 23:04 | 60.76489 | 11.20038 | 16450 ft | 364 kts | 359° |
| 2026-05-06 23:04 | 60.79028 | 11.20600 | 17051 ft | 368 kts | 359° |
| 2026-05-06 23:04 | 60.81587 | 11.21167 | 17652 ft | 372 kts | 358° |
| 2026-05-06 23:05 | 60.84180 | 11.21742 | 18228 ft | 377 kts | 358° |
| 2026-05-06 23:05 | 60.86813 | 11.22327 | 18782 ft | 381 kts | 357° |
| 2026-05-06 23:05 | 60.89439 | 11.22917 | 19507 ft | 379 kts | 358° |
| 2026-05-06 23:05 | 60.92076 | 11.23511 | 20062 ft | 382 kts | 358° |
| 2026-05-06 23:06 | 60.94739 | 11.24106 | 20493 ft | 388 kts | 358° |
| 2026-05-06 23:06 | 60.97435 | 11.24708 | 20962 ft | 392 kts | 357° |
| 2026-05-06 23:06 | 61.00130 | 11.25312 | 21461 ft | 396 kts | 357° |
| 2026-05-06 23:06 | 61.02882 | 11.25931 | 21952 ft | 399 kts | 356° |
| 2026-05-06 23:07 | 61.05663 | 11.26558 | 22429 ft | 403 kts | 356° |
| 2026-05-06 23:07 | 61.08461 | 11.27189 | 22891 ft | 407 kts | 356° |
| 2026-05-06 23:07 | 61.11286 | 11.27827 | 23352 ft | 410 kts | 356° |
| 2026-05-06 23:07 | 61.14141 | 11.28473 | 23758 ft | 414 kts | 355° |
| 2026-05-06 23:08 | 61.17018 | 11.29128 | 24145 ft | 417 kts | 356° |
| 2026-05-06 23:08 | 61.19907 | 11.29787 | 24552 ft | 419 kts | 356° |
| 2026-05-06 23:08 | 61.22811 | 11.30452 | 24947 ft | 421 kts | 356° |
| 2026-05-06 23:08 | 61.25733 | 11.31122 | 25326 ft | 424 kts | 356° |
| 2026-05-06 23:09 | 61.28633 | 11.31785 | 25707 ft | 426 kts | 356° |
| 2026-05-06 23:09 | 61.31600 | 11.32466 | 26099 ft | 429 kts | 356° |
| 2026-05-06 23:09 | 61.34572 | 11.33149 | 26471 ft | 431 kts | 356° |
| 2026-05-06 23:09 | 61.37575 | 11.33841 | 26819 ft | 434 kts | 357° |
| 2026-05-06 23:10 | 61.40586 | 11.34536 | 27153 ft | 436 kts | 357° |
| 2026-05-06 23:10 | 61.43583 | 11.35229 | 27495 ft | 439 kts | 357° |
| 2026-05-06 23:10 | 61.46627 | 11.35933 | 27913 ft | 441 kts | 358° |
| 2026-05-06 23:10 | 61.49680 | 11.36642 | 28299 ft | 443 kts | 358° |
| 2026-05-06 23:11 | 61.52753 | 11.37358 | 28630 ft | 445 kts | 358° |
| 2026-05-06 23:11 | 61.55844 | 11.38078 | 28936 ft | 448 kts | 358° |
| 2026-05-06 23:11 | 61.58950 | 11.38802 | 29223 ft | 450 kts | 358° |
| 2026-05-06 23:11 | 61.62075 | 11.39533 | 29555 ft | 453 kts | 359° |
| 2026-05-06 23:12 | 61.65224 | 11.40271 | 29895 ft | 455 kts | 359° |
| 2026-05-06 23:12 | 61.68376 | 11.41011 | 30165 ft | 457 kts | 359° |
| 2026-05-06 23:12 | 61.71546 | 11.41758 | 30393 ft | 459 kts | 360° |
| 2026-05-06 23:12 | 61.74720 | 11.42508 | 30628 ft | 461 kts | 360° |
| 2026-05-06 23:13 | 61.77913 | 11.43263 | 30879 ft | 463 kts | 0° |
| 2026-05-06 23:13 | 61.81117 | 11.44023 | 31097 ft | 464 kts | 1° |
| 2026-05-06 23:13 | 61.84304 | 11.44780 | 31312 ft | 466 kts | 1° |
| 2026-05-06 23:13 | 61.87529 | 11.45546 | 31527 ft | 468 kts | 1° |
| 2026-05-06 23:14 | 61.90772 | 11.46319 | 31730 ft | 470 kts | 1° |
| 2026-05-06 23:14 | 61.94036 | 11.47100 | 31954 ft | 471 kts | 1° |
| 2026-05-06 23:14 | 61.97288 | 11.47880 | 32231 ft | 471 kts | 1° |
| 2026-05-06 23:14 | 62.00541 | 11.48660 | 32525 ft | 469 kts | 1° |
| 2026-05-06 23:15 | 62.03788 | 11.49416 | 32789 ft | 469 kts | 1° |
| 2026-05-06 23:15 | 62.07043 | 11.50156 | 33058 ft | 470 kts | 1° |
| 2026-05-06 23:15 | 62.10291 | 11.50887 | 33305 ft | 470 kts | 1° |
| 2026-05-06 23:15 | 62.13536 | 11.51619 | 33579 ft | 469 kts | 1° |
| 2026-05-06 23:16 | 62.16742 | 11.52346 | 33843 ft | 469 kts | 1° |
| 2026-05-06 23:16 | 62.19999 | 11.53088 | 34038 ft | 469 kts | 1° |
| 2026-05-06 23:16 | 62.23247 | 11.53832 | 34226 ft | 469 kts | 1° |
| 2026-05-06 23:16 | 62.26493 | 11.54578 | 34435 ft | 469 kts | 2° |
| 2026-05-06 23:17 | 62.29733 | 11.55325 | 34624 ft | 469 kts | 2° |
| 2026-05-06 23:17 | 62.32981 | 11.56077 | 34785 ft | 469 kts | 2° |
| 2026-05-06 23:17 | 62.36225 | 11.56828 | 34974 ft | 469 kts | 2° |
| 2026-05-06 23:17 | 62.39469 | 11.57581 | 35175 ft | 468 kts | 2° |
| 2026-05-06 23:18 | 62.42708 | 11.58335 | 35379 ft | 468 kts | 2° |
| 2026-05-06 23:18 | 62.45951 | 11.59091 | 35536 ft | 468 kts | 2° |
| 2026-05-06 23:18 | 62.49194 | 11.59849 | 35677 ft | 469 kts | 2° |
| 2026-05-06 23:18 | 62.52402 | 11.60600 | 35845 ft | 469 kts | 2° |
| 2026-05-06 23:19 | 62.55646 | 11.61361 | 36021 ft | 468 kts | 2° |
| 2026-05-06 23:19 | 62.58884 | 11.62124 | 36125 ft | 468 kts | 2° |
| 2026-05-06 23:19 | 62.62127 | 11.62888 | 36262 ft | 469 kts | 2° |
| 2026-05-06 23:19 | 62.65370 | 11.63653 | 36441 ft | 469 kts | 2° |
| 2026-05-06 23:20 | 62.68613 | 11.64421 | 36607 ft | 468 kts | 2° |
| 2026-05-06 23:20 | 62.71850 | 11.65189 | 36778 ft | 468 kts | 2° |
| 2026-05-06 23:20 | 62.75088 | 11.65959 | 36913 ft | 468 kts | 2° |
| 2026-05-06 23:20 | 62.78325 | 11.66730 | 37032 ft | 468 kts | 3° |
| 2026-05-06 23:21 | 62.81567 | 11.67505 | 37191 ft | 468 kts | 3° |
| 2026-05-06 23:21 | 62.84804 | 11.68280 | 37351 ft | 468 kts | 3° |
| 2026-05-06 23:21 | 62.88045 | 11.69057 | 37479 ft | 468 kts | 3° |
| 2026-05-06 23:21 | 62.91294 | 11.69838 | 37597 ft | 468 kts | 3° |
| 2026-05-06 23:22 | 62.94536 | 11.70619 | 37722 ft | 468 kts | 3° |
| 2026-05-06 23:22 | 62.97738 | 11.71393 | 37877 ft | 468 kts | 3° |
| 2026-05-06 23:22 | 63.00974 | 11.72176 | 38010 ft | 468 kts | 3° |
| 2026-05-06 23:23 | 63.07461 | 11.73752 | 38204 ft | 468 kts | 3° |
| 2026-05-06 23:23 | 63.10708 | 11.74543 | 38332 ft | 468 kts | 3° |
| 2026-05-06 23:23 | 63.13948 | 11.75334 | 38444 ft | 468 kts | 3° |
| 2026-05-06 23:24 | 63.20388 | 11.76913 | 38629 ft | 468 kts | 3° |
| 2026-05-06 23:24 | 63.26863 | 11.78507 | 38808 ft | 468 kts | 3° |
| 2026-05-06 23:25 | 63.33338 | 11.80108 | 38981 ft | 466 kts | 3° |
| 2026-05-06 23:25 | 63.39800 | 11.81446 | 39029 ft | 466 kts | 1° |
| 2026-05-06 23:26 | 63.46280 | 11.82279 | 39046 ft | 467 kts | 0° |
| 2026-05-06 23:26 | 63.52750 | 11.83080 | 39038 ft | 469 kts | 0° |
| 2026-05-06 23:27 | 63.59284 | 11.83965 | 39041 ft | 470 kts | 1° |
| 2026-05-06 23:27 | 63.65827 | 11.84900 | 39029 ft | 471 kts | 1° |
| 2026-05-06 23:28 | 63.72377 | 11.85853 | 39024 ft | 471 kts | 1° |
| 2026-05-06 23:28 | 63.78883 | 11.86802 | 39026 ft | 471 kts | 1° |
| 2026-05-06 23:29 | 63.85426 | 11.87758 | 39017 ft | 470 kts | 1° |
| 2026-05-06 23:29 | 63.91948 | 11.88715 | 39025 ft | 469 kts | 1° |
| 2026-05-06 23:30 | 63.98467 | 11.89676 | 39018 ft | 468 kts | 1° |
| 2026-05-06 23:30 | 64.04916 | 11.90630 | 39019 ft | 466 kts | 1° |
| 2026-05-06 23:31 | 64.11401 | 11.91595 | 39016 ft | 465 kts | 1° |
| 2026-05-06 23:31 | 64.17866 | 11.92560 | 39022 ft | 464 kts | 1° |
| 2026-05-06 23:32 | 64.24258 | 11.93520 | 39013 ft | 463 kts | 1° |
| 2026-05-06 23:32 | 64.30682 | 11.94488 | 39002 ft | 462 kts | 1° |
| 2026-05-06 23:33 | 64.37092 | 11.95459 | 39000 ft | 461 kts | 1° |
| 2026-05-06 23:33 | 64.43516 | 11.96436 | 38999 ft | 461 kts | 1° |
| 2026-05-06 23:34 | 64.49896 | 11.97412 | 39011 ft | 461 kts | 1° |
| 2026-05-06 23:34 | 64.56324 | 11.98399 | 39010 ft | 462 kts | 1° |
| 2026-05-06 23:35 | 64.62757 | 11.99392 | 38998 ft | 463 kts | 1° |
| 2026-05-06 23:35 | 64.69190 | 12.00389 | 39006 ft | 464 kts | 1° |
| 2026-05-06 23:36 | 64.75599 | 12.01388 | 39004 ft | 465 kts | 1° |
| 2026-05-06 23:36 | 64.82064 | 12.02400 | 39018 ft | 465 kts | 1° |
| 2026-05-06 23:37 | 64.88539 | 12.03419 | 38999 ft | 466 kts | 1° |
| 2026-05-06 23:37 | 64.95018 | 12.04443 | 38998 ft | 467 kts | 1° |
| 2026-05-06 23:38 | 65.01473 | 12.05469 | 38994 ft | 467 kts | 1° |
| 2026-05-06 23:38 | 65.07965 | 12.06506 | 38989 ft | 468 kts | 1° |
| 2026-05-06 23:39 | 65.14465 | 12.07549 | 39000 ft | 468 kts | 1° |
| 2026-05-06 23:39 | 65.20964 | 12.08596 | 38987 ft | 468 kts | 1° |
| 2026-05-06 23:40 | 65.27460 | 12.09649 | 38980 ft | 467 kts | 2° |
| 2026-05-06 23:40 | 65.33913 | 12.10700 | 38983 ft | 466 kts | 2° |
| 2026-05-06 23:41 | 65.40395 | 12.11761 | 38981 ft | 466 kts | 2° |
| 2026-05-06 23:41 | 65.46863 | 12.12825 | 38988 ft | 465 kts | 2° |
| 2026-05-06 23:42 | 65.53321 | 12.13891 | 38978 ft | 464 kts | 2° |
| 2026-05-06 23:42 | 65.59769 | 12.14962 | 38975 ft | 464 kts | 2° |
| 2026-05-06 23:43 | 65.65116 | 12.15854 | 38968 ft | 463 kts | 2° |
| 2026-05-06 23:43 | 65.72585 | 12.17106 | 38970 ft | 462 kts | 2° |
| 2026-05-06 23:44 | 65.77964 | 12.18012 | 38976 ft | 462 kts | 2° |
| 2026-05-06 23:44 | 65.84341 | 12.19092 | 38974 ft | 462 kts | 2° |
| 2026-05-06 23:45 | 65.90764 | 12.20184 | 38966 ft | 462 kts | 2° |
| 2026-05-06 23:45 | 65.97187 | 12.21283 | 38970 ft | 462 kts | 2° |
| 2026-05-06 23:46 | 66.03598 | 12.22384 | 38963 ft | 462 kts | 2° |
| 2026-05-06 23:46 | 66.09985 | 12.23487 | 38970 ft | 462 kts | 2° |
| 2026-05-06 23:47 | 66.16410 | 12.24602 | 38958 ft | 462 kts | 2° |
| 2026-05-06 23:47 | 66.22822 | 12.25721 | 38965 ft | 462 kts | 2° |
| 2026-05-06 23:48 | 66.29195 | 12.26838 | 38971 ft | 462 kts | 2° |
| 2026-05-06 23:48 | 66.35620 | 12.27970 | 38964 ft | 462 kts | 2° |
| 2026-05-06 23:49 | 66.42035 | 12.29106 | 38964 ft | 462 kts | 2° |
| 2026-05-06 23:49 | 66.48455 | 12.30250 | 38960 ft | 462 kts | 2° |
| 2026-05-06 23:50 | 66.54874 | 12.31399 | 38952 ft | 462 kts | 2° |
| 2026-05-06 23:50 | 66.64493 | 12.33132 | 38950 ft | 461 kts | 2° |
| 2026-05-06 23:51 | 66.70862 | 12.34286 | 38948 ft | 461 kts | 2° |
| 2026-05-06 23:51 | 66.77276 | 12.35455 | 38952 ft | 460 kts | 2° |
| 2026-05-06 23:52 | 66.83666 | 12.36626 | 38946 ft | 460 kts | 3° |
| 2026-05-06 23:52 | 66.90003 | 12.37793 | 38947 ft | 459 kts | 2° |
| 2026-05-06 23:53 | 66.96381 | 12.38974 | 38948 ft | 459 kts | 2° |
| 2026-05-06 23:53 | 67.02761 | 12.40161 | 38948 ft | 458 kts | 2° |
| 2026-05-06 23:54 | 67.09118 | 12.41351 | 38945 ft | 458 kts | 2° |
| 2026-05-06 23:54 | 67.15473 | 12.42546 | 38933 ft | 458 kts | 2° |
| 2026-05-06 23:55 | 67.21803 | 12.43743 | 38937 ft | 458 kts | 2° |
| 2026-05-06 23:55 | 67.28160 | 12.44951 | 38937 ft | 458 kts | 2° |
| 2026-05-06 23:56 | 67.34516 | 12.46165 | 38927 ft | 458 kts | 2° |
| 2026-05-06 23:56 | 67.40878 | 12.47388 | 38927 ft | 458 kts | 2° |
| 2026-05-06 23:57 | 67.47244 | 12.48617 | 38927 ft | 459 kts | 2° |
| 2026-05-06 23:57 | 67.53580 | 12.49847 | 38925 ft | 459 kts | 3° |
| 2026-05-06 23:58 | 67.59960 | 12.51093 | 38921 ft | 460 kts | 2° |
| 2026-05-06 23:58 | 67.66347 | 12.52346 | 38924 ft | 460 kts | 2° |
| 2026-05-06 23:59 | 67.72747 | 12.53609 | 38928 ft | 460 kts | 2° |
| 2026-05-06 23:59 | 67.79143 | 12.54878 | 38918 ft | 461 kts | 3° |
| 2026-05-07 00:00 | 67.85544 | 12.56156 | 38909 ft | 461 kts | 2° |
| 2026-05-07 00:00 | 67.91909 | 12.57433 | 38916 ft | 461 kts | 2° |
| 2026-05-07 00:01 | 67.98308 | 12.58724 | 38915 ft | 461 kts | 2° |
| 2026-05-07 00:01 | 68.04708 | 12.60023 | 38902 ft | 461 kts | 3° |
| 2026-05-07 00:02 | 68.11113 | 12.61329 | 38905 ft | 460 kts | 3° |
| 2026-05-07 00:02 | 68.17455 | 12.62630 | 38897 ft | 460 kts | 3° |
| 2026-05-07 00:03 | 68.23838 | 12.63947 | 38899 ft | 459 kts | 3° |
| 2026-05-07 00:03 | 68.30207 | 12.65268 | 38898 ft | 458 kts | 3° |
| 2026-05-07 00:04 | 68.36559 | 12.66593 | 38897 ft | 457 kts | 3° |
| 2026-05-07 00:04 | 68.42868 | 12.67916 | 38905 ft | 456 kts | 3° |
| 2026-05-07 00:05 | 68.49205 | 12.69253 | 38905 ft | 455 kts | 4° |
| 2026-05-07 00:05 | 68.55481 | 12.70584 | 38896 ft | 455 kts | 4° |
| 2026-05-07 00:06 | 68.61822 | 12.71937 | 38903 ft | 454 kts | 4° |
| 2026-05-07 00:06 | 68.68087 | 12.73281 | 38902 ft | 453 kts | 4° |
| 2026-05-07 00:07 | 68.74370 | 12.74637 | 38901 ft | 452 kts | 3° |
| 2026-05-07 00:07 | 68.80613 | 12.75992 | 38901 ft | 452 kts | 3° |
| 2026-05-07 00:08 | 68.86892 | 12.77361 | 38903 ft | 452 kts | 3° |
| 2026-05-07 00:08 | 68.93160 | 12.78737 | 38908 ft | 452 kts | 4° |
| 2026-05-07 00:09 | 68.99439 | 12.80122 | 38907 ft | 452 kts | 3° |
| 2026-05-07 00:09 | 69.05722 | 12.81155 | 38922 ft | 452 kts | 0° |
| 2026-05-07 00:10 | 69.12020 | 12.81424 | 38922 ft | 453 kts | 359° |
| 2026-05-07 00:10 | 69.18323 | 12.81600 | 38910 ft | 453 kts | 360° |
| 2026-05-07 00:11 | 69.24597 | 12.81854 | 38920 ft | 454 kts | 360° |
| 2026-05-07 00:11 | 69.30925 | 12.82167 | 38923 ft | 454 kts | 0° |
| 2026-05-07 00:12 | 69.37263 | 12.82501 | 38928 ft | 455 kts | 0° |
| 2026-05-07 00:12 | 69.43605 | 12.82839 | 38926 ft | 455 kts | 0° |
| 2026-05-07 00:13 | 69.49908 | 12.83176 | 38931 ft | 456 kts | 0° |
| 2026-05-07 00:13 | 69.56259 | 12.83515 | 38930 ft | 456 kts | 0° |
| 2026-05-07 00:14 | 69.62615 | 12.83856 | 38940 ft | 456 kts | 0° |
| 2026-05-07 00:14 | 69.68958 | 12.84199 | 38939 ft | 455 kts | 0° |
| 2026-05-07 00:15 | 69.75259 | 12.84541 | 38942 ft | 455 kts | 1° |
| 2026-05-07 00:15 | 69.81593 | 12.84887 | 38944 ft | 455 kts | 1° |
| 2026-05-07 00:16 | 69.87919 | 12.85235 | 38941 ft | 454 kts | 1° |
| 2026-05-07 00:16 | 69.94236 | 12.85584 | 38940 ft | 453 kts | 1° |
| 2026-05-07 00:17 | 70.00509 | 12.85934 | 38947 ft | 453 kts | 1° |
| 2026-05-07 00:17 | 70.06803 | 12.86286 | 38944 ft | 452 kts | 1° |
| 2026-05-07 00:18 | 70.13096 | 12.86640 | 38949 ft | 451 kts | 1° |
| 2026-05-07 00:18 | 70.19389 | 12.86997 | 38950 ft | 451 kts | 1° |
| 2026-05-07 00:19 | 70.25665 | 12.87355 | 38950 ft | 450 kts | 1° |
| 2026-05-07 00:19 | 70.31898 | 12.87712 | 38953 ft | 450 kts | 1° |
| 2026-05-07 00:20 | 70.38161 | 12.88074 | 38952 ft | 450 kts | 1° |
| 2026-05-07 00:20 | 70.44423 | 12.88437 | 38955 ft | 449 kts | 1° |
| 2026-05-07 00:21 | 70.50673 | 12.88802 | 38960 ft | 449 kts | 1° |
| 2026-05-07 00:21 | 70.56895 | 12.89168 | 38959 ft | 449 kts | 1° |
| 2026-05-07 00:22 | 70.63146 | 12.89538 | 38961 ft | 449 kts | 1° |
| 2026-05-07 00:22 | 70.69391 | 12.89910 | 38959 ft | 449 kts | 1° |
| 2026-05-07 00:23 | 70.75653 | 12.90285 | 38961 ft | 449 kts | 1° |
| 2026-05-07 00:23 | 70.81901 | 12.90661 | 38959 ft | 449 kts | 1° |
| 2026-05-07 00:24 | 70.88119 | 12.91039 | 38958 ft | 449 kts | 1° |
| 2026-05-07 00:24 | 70.94379 | 12.91421 | 38961 ft | 450 kts | 1° |
| 2026-05-07 00:25 | 71.00634 | 12.91805 | 38962 ft | 450 kts | 1° |
| 2026-05-07 00:25 | 71.06897 | 12.92192 | 38958 ft | 450 kts | 1° |
| 2026-05-07 00:26 | 71.13175 | 12.92582 | 38966 ft | 450 kts | 2° |
| 2026-05-07 00:26 | 71.19449 | 12.92975 | 38966 ft | 450 kts | 2° |
| 2026-05-07 00:27 | 71.25680 | 12.93368 | 38965 ft | 450 kts | 2° |
| 2026-05-07 00:27 | 71.31989 | 12.93768 | 38966 ft | 450 kts | 2° |
| 2026-05-07 00:28 | 71.38218 | 12.94165 | 38973 ft | 450 kts | 2° |
| 2026-05-07 00:28 | 71.44487 | 12.94568 | 38967 ft | 450 kts | 2° |
| 2026-05-07 00:29 | 71.50747 | 12.94973 | 38973 ft | 449 kts | 2° |
| 2026-05-07 00:30 | 71.63216 | 12.95787 | 38974 ft | 448 kts | 2° |
| 2026-05-07 00:30 | 71.68394 | 12.96128 | 38977 ft | 448 kts | 2° |
| 2026-05-07 00:31 | 71.74639 | 12.96542 | 38976 ft | 447 kts | 2° |
| 2026-05-07 00:31 | 71.80836 | 12.96956 | 38967 ft | 447 kts | 2° |
| 2026-05-07 00:32 | 71.87059 | 12.97374 | 38976 ft | 446 kts | 2° |
| 2026-05-07 00:32 | 71.93276 | 12.97794 | 38977 ft | 446 kts | 2° |
| 2026-05-07 00:33 | 71.99485 | 12.98217 | 38983 ft | 446 kts | 2° |
| 2026-05-07 00:33 | 72.05662 | 12.98640 | 38985 ft | 445 kts | 2° |
| 2026-05-07 00:34 | 72.11862 | 12.99068 | 38995 ft | 445 kts | 2° |
| 2026-05-07 00:34 | 72.18021 | 12.99496 | 38988 ft | 445 kts | 2° |
| 2026-05-07 00:35 | 72.24213 | 12.99929 | 38989 ft | 445 kts | 2° |
| 2026-05-07 00:35 | 72.30411 | 13.00365 | 39011 ft | 444 kts | 2° |
| 2026-05-07 00:36 | 72.36605 | 13.00805 | 39000 ft | 445 kts | 2° |
| 2026-05-07 00:36 | 72.42790 | 13.01246 | 39013 ft | 445 kts | 2° |
| 2026-05-07 00:37 | 72.48948 | 13.01688 | 39024 ft | 445 kts | 2° |
| 2026-05-07 00:37 | 72.55148 | 13.02137 | 39023 ft | 445 kts | 2° |
| 2026-05-07 00:38 | 72.61346 | 13.02589 | 39026 ft | 446 kts | 2° |
| 2026-05-07 00:38 | 72.67546 | 13.03043 | 39042 ft | 446 kts | 2° |
| 2026-05-07 00:39 | 72.73758 | 13.03502 | 39032 ft | 446 kts | 2° |
| 2026-05-07 00:39 | 72.79971 | 13.03964 | 39031 ft | 447 kts | 2° |
| 2026-05-07 00:40 | 72.86189 | 13.04430 | 39052 ft | 447 kts | 2° |
| 2026-05-07 00:40 | 72.92414 | 13.04899 | 39042 ft | 447 kts | 2° |
| 2026-05-07 00:41 | 72.98602 | 13.05370 | 39054 ft | 447 kts | 2° |
| 2026-05-07 00:41 | 73.04828 | 13.05846 | 39065 ft | 447 kts | 2° |
| 2026-05-07 00:42 | 73.11057 | 13.06326 | 39066 ft | 447 kts | 2° |
| 2026-05-07 00:42 | 73.17251 | 13.06806 | 39065 ft | 447 kts | 2° |
| 2026-05-07 00:43 | 73.23474 | 13.07292 | 39075 ft | 447 kts | 2° |
| 2026-05-07 00:43 | 73.29715 | 13.07784 | 39078 ft | 447 kts | 2° |
| 2026-05-07 00:44 | 73.35887 | 13.08273 | 39075 ft | 447 kts | 2° |
| 2026-05-07 00:44 | 73.42106 | 13.08770 | 39094 ft | 446 kts | 2° |
| 2026-05-07 00:45 | 73.48315 | 13.09269 | 39089 ft | 446 kts | 2° |
| 2026-05-07 00:45 | 73.54525 | 13.09773 | 39092 ft | 446 kts | 2° |
| 2026-05-07 00:46 | 73.60689 | 13.10276 | 39097 ft | 445 kts | 2° |
| 2026-05-07 00:46 | 73.66889 | 13.10786 | 39092 ft | 445 kts | 2° |
| 2026-05-07 00:47 | 73.73083 | 13.11299 | 39100 ft | 445 kts | 2° |
| 2026-05-07 00:47 | 73.79272 | 13.11816 | 39110 ft | 445 kts | 2° |
| 2026-05-07 00:48 | 73.85462 | 13.12336 | 39115 ft | 445 kts | 2° |
| 2026-05-07 00:48 | 73.91656 | 13.12861 | 39109 ft | 445 kts | 2° |
| 2026-05-07 00:49 | 73.97854 | 13.13390 | 39120 ft | 445 kts | 2° |
| 2026-05-07 00:49 | 74.04011 | 13.13920 | 39122 ft | 445 kts | 2° |
| 2026-05-07 00:50 | 74.10226 | 13.14459 | 39116 ft | 445 kts | 2° |
| 2026-05-07 00:50 | 74.16381 | 13.14996 | 39126 ft | 445 kts | 2° |
| 2026-05-07 00:51 | 74.22585 | 13.15542 | 39128 ft | 445 kts | 2° |
| 2026-05-07 00:51 | 74.28783 | 13.16091 | 39128 ft | 446 kts | 2° |
| 2026-05-07 00:52 | 74.34981 | 13.16645 | 39142 ft | 445 kts | 2° |
| 2026-05-07 00:52 | 74.41142 | 13.17199 | 39144 ft | 445 kts | 2° |
| 2026-05-07 00:53 | 74.47346 | 13.17763 | 39133 ft | 446 kts | 2° |
| 2026-05-07 00:53 | 74.53546 | 13.18329 | 39145 ft | 445 kts | 2° |
| 2026-05-07 00:54 | 74.59741 | 13.18900 | 39146 ft | 445 kts | 2° |
| 2026-05-07 00:54 | 74.65938 | 13.19476 | 39134 ft | 445 kts | 2° |
| 2026-05-07 00:55 | 74.72132 | 13.20056 | 39150 ft | 445 kts | 2° |
| 2026-05-07 00:55 | 74.78325 | 13.20640 | 39152 ft | 445 kts | 2° |
| 2026-05-07 00:56 | 74.84516 | 13.21229 | 39149 ft | 445 kts | 2° |
| 2026-05-07 00:56 | 74.90670 | 13.21819 | 39157 ft | 444 kts | 2° |
| 2026-05-07 00:57 | 74.96869 | 13.22418 | 39158 ft | 444 kts | 2° |
| 2026-05-07 00:57 | 75.03065 | 13.23022 | 39156 ft | 444 kts | 2° |
| 2026-05-07 00:58 | 75.09242 | 13.23629 | 39162 ft | 444 kts | 2° |
| 2026-05-07 00:58 | 75.15379 | 13.24236 | 39173 ft | 444 kts | 2° |
| 2026-05-07 00:59 | 75.24635 | 13.25162 | 39176 ft | 443 kts | 2° |
| 2026-05-07 01:00 | 75.30823 | 13.25788 | 39169 ft | 443 kts | 2° |
| 2026-05-07 01:00 | 75.36997 | 13.26417 | 39180 ft | 443 kts | 2° |
| 2026-05-07 01:01 | 75.43124 | 13.27046 | 39193 ft | 443 kts | 2° |
| 2026-05-07 01:01 | 75.49298 | 13.27686 | 39175 ft | 443 kts | 2° |
| 2026-05-07 01:02 | 75.55435 | 13.28327 | 39183 ft | 443 kts | 2° |
| 2026-05-07 01:02 | 75.61601 | 13.28976 | 39197 ft | 443 kts | 3° |
| 2026-05-07 01:03 | 75.67761 | 13.29631 | 39187 ft | 443 kts | 2° |
| 2026-05-07 01:03 | 75.73924 | 13.30291 | 39203 ft | 443 kts | 2° |
| 2026-05-07 01:04 | 75.80084 | 13.30956 | 39200 ft | 443 kts | 3° |
| 2026-05-07 01:04 | 75.86248 | 13.31628 | 39205 ft | 443 kts | 2° |
| 2026-05-07 01:05 | 75.92408 | 13.32305 | 39212 ft | 443 kts | 2° |
| 2026-05-07 01:05 | 75.98596 | 13.32990 | 39211 ft | 443 kts | 3° |
| 2026-05-07 01:06 | 76.04762 | 13.33680 | 39216 ft | 443 kts | 2° |
| 2026-05-07 01:06 | 76.10888 | 13.34371 | 39213 ft | 443 kts | 2° |
| 2026-05-07 01:07 | 76.16903 | 13.35047 | 39197 ft | 417 kts | 3° |
| 2026-05-07 01:07 | 76.19763 | 13.35369 | 39193 ft | 401 kts | 3° |
| 2026-05-07 01:07 | 76.22480 | 13.35678 | 39174 ft | 392 kts | 3° |
| 2026-05-07 01:08 | 76.27985 | 13.36323 | 39050 ft | 400 kts | 3° |
| 2026-05-07 01:08 | 76.30809 | 13.36659 | 38646 ft | 414 kts | 2° |
| 2026-05-07 01:08 | 76.33757 | 13.37012 | 37814 ft | 429 kts | 3° |
| 2026-05-07 01:08 | 76.36760 | 13.37367 | 37071 ft | 433 kts | 3° |
| 2026-05-07 01:09 | 76.39789 | 13.37725 | 36350 ft | 437 kts | 3° |
| 2026-05-07 01:09 | 76.42809 | 13.38076 | 36078 ft | 429 kts | 4° |
| 2026-05-07 01:09 | 76.45782 | 13.38420 | 35499 ft | 425 kts | 4° |
| 2026-05-07 01:09 | 76.48754 | 13.38773 | 34537 ft | 431 kts | 4° |
| 2026-05-07 01:10 | 76.51762 | 13.39136 | 33634 ft | 432 kts | 4° |
| 2026-05-07 01:10 | 76.54703 | 13.39488 | 33085 ft | 423 kts | 4° |
| 2026-05-07 01:10 | 76.57602 | 13.40354 | 32473 ft | 414 kts | 8° |
| 2026-05-07 01:10 | 76.60480 | 13.41895 | 31455 ft | 418 kts | 11° |
| 2026-05-07 01:11 | 76.63374 | 13.43757 | 30741 ft | 421 kts | 12° |
| 2026-05-07 01:11 | 76.66269 | 13.45685 | 30192 ft | 419 kts | 12° |
| 2026-05-07 01:11 | 76.69146 | 13.47570 | 29621 ft | 415 kts | 12° |
| 2026-05-07 01:11 | 76.71981 | 13.49378 | 29143 ft | 410 kts | 12° |
| 2026-05-07 01:12 | 76.74793 | 13.51129 | 28669 ft | 405 kts | 11° |
| 2026-05-07 01:12 | 76.77533 | 13.52810 | 28213 ft | 400 kts | 11° |
| 2026-05-07 01:12 | 76.80273 | 13.54479 | 27750 ft | 396 kts | 11° |
| 2026-05-07 01:12 | 76.82992 | 13.56131 | 27284 ft | 392 kts | 11° |
| 2026-05-07 01:13 | 76.85689 | 13.57774 | 26823 ft | 389 kts | 11° |
| 2026-05-07 01:13 | 76.88358 | 13.59403 | 26345 ft | 385 kts | 12° |
| 2026-05-07 01:13 | 76.90996 | 13.61018 | 25935 ft | 381 kts | 12° |
| 2026-05-07 01:13 | 76.93612 | 13.62628 | 25483 ft | 378 kts | 12° |
| 2026-05-07 01:14 | 76.96210 | 13.64235 | 25046 ft | 375 kts | 12° |
| 2026-05-07 01:14 | 76.98787 | 13.65835 | 24613 ft | 372 kts | 12° |
| 2026-05-07 01:14 | 77.01344 | 13.67430 | 24182 ft | 370 kts | 12° |
| 2026-05-07 01:14 | 77.03886 | 13.69021 | 23738 ft | 368 kts | 12° |
| 2026-05-07 01:15 | 77.06409 | 13.70607 | 23226 ft | 365 kts | 12° |
| 2026-05-07 01:15 | 77.08908 | 13.72182 | 22797 ft | 359 kts | 12° |
| 2026-05-07 01:15 | 77.11342 | 13.73714 | 22397 ft | 348 kts | 12° |
| 2026-05-07 01:15 | 77.13735 | 13.75231 | 21953 ft | 346 kts | 12° |
| 2026-05-07 01:16 | 77.16072 | 13.76724 | 21558 ft | 343 kts | 12° |
| 2026-05-07 01:16 | 77.18430 | 13.78238 | 21134 ft | 341 kts | 12° |
| 2026-05-07 01:16 | 77.20770 | 13.79744 | 20729 ft | 339 kts | 12° |
| 2026-05-07 01:16 | 77.23096 | 13.81247 | 20324 ft | 337 kts | 11° |
| 2026-05-07 01:17 | 77.25409 | 13.82746 | 19928 ft | 334 kts | 11° |
| 2026-05-07 01:17 | 77.27703 | 13.84237 | 19529 ft | 333 kts | 11° |
| 2026-05-07 01:17 | 77.29992 | 13.85730 | 19133 ft | 331 kts | 11° |
| 2026-05-07 01:17 | 77.32269 | 13.87220 | 18732 ft | 330 kts | 11° |
| 2026-05-07 01:18 | 77.33776 | 13.88209 | 18462 ft | 329 kts | 11° |
| 2026-05-07 01:18 | 77.36042 | 13.89700 | 18013 ft | 328 kts | 11° |
| 2026-05-07 01:18 | 77.38289 | 13.91184 | 17619 ft | 325 kts | 11° |
| 2026-05-07 01:18 | 77.40523 | 13.92663 | 17221 ft | 323 kts | 11° |
| 2026-05-07 01:19 | 77.42716 | 13.94120 | 16824 ft | 321 kts | 11° |
| 2026-05-07 01:19 | 77.44915 | 13.95588 | 16449 ft | 318 kts | 10° |
| 2026-05-07 01:19 | 77.47099 | 13.97050 | 16051 ft | 317 kts | 10° |
| 2026-05-07 01:19 | 77.49276 | 13.98514 | 15667 ft | 315 kts | 10° |
| 2026-05-07 01:20 | 77.51443 | 13.99975 | 15281 ft | 313 kts | 10° |
| 2026-05-07 01:20 | 77.53595 | 14.01431 | 14905 ft | 312 kts | 10° |
| 2026-05-07 01:20 | 77.55735 | 14.02884 | 14529 ft | 310 kts | 10° |
| 2026-05-07 01:20 | 77.57874 | 14.04340 | 14151 ft | 309 kts | 10° |
| 2026-05-07 01:21 | 77.59996 | 14.05791 | 13733 ft | 308 kts | 10° |
| 2026-05-07 01:21 | 77.62115 | 14.07243 | 13355 ft | 305 kts | 10° |
| 2026-05-07 01:21 | 77.64185 | 14.08666 | 12961 ft | 303 kts | 10° |
| 2026-05-07 01:21 | 77.66266 | 14.10103 | 12614 ft | 301 kts | 10° |
| 2026-05-07 01:22 | 77.68330 | 14.11532 | 12231 ft | 299 kts | 10° |
| 2026-05-07 01:22 | 77.70383 | 14.12959 | 11868 ft | 297 kts | 10° |
| 2026-05-07 01:22 | 77.72431 | 14.14387 | 11493 ft | 296 kts | 10° |
| 2026-05-07 01:22 | 77.74461 | 14.15808 | 11125 ft | 295 kts | 10° |
| 2026-05-07 01:23 | 77.76463 | 14.17213 | 10763 ft | 293 kts | 10° |
| 2026-05-07 01:23 | 77.78475 | 14.18630 | 10490 ft | 289 kts | 10° |
| 2026-05-07 01:23 | 77.80454 | 14.20025 | 10370 ft | 280 kts | 10° |
| 2026-05-07 01:23 | 77.82329 | 14.21350 | 10247 ft | 271 kts | 10° |
| 2026-05-07 01:24 | 77.84157 | 14.22648 | 10112 ft | 264 kts | 10° |
| 2026-05-07 01:24 | 77.85993 | 14.23960 | 9684 ft | 266 kts | 10° |
| 2026-05-07 01:24 | 77.87813 | 14.25264 | 9365 ft | 264 kts | 10° |
| 2026-05-07 01:24 | 77.89629 | 14.26568 | 9056 ft | 262 kts | 10° |
| 2026-05-07 01:25 | 77.91425 | 14.27860 | 8754 ft | 261 kts | 10° |
| 2026-05-07 01:25 | 77.93221 | 14.29155 | 8451 ft | 260 kts | 10° |
| 2026-05-07 01:25 | 77.95004 | 14.30445 | 8173 ft | 258 kts | 10° |
| 2026-05-07 01:25 | 77.96778 | 14.31734 | 7886 ft | 257 kts | 10° |
| 2026-05-07 01:26 | 77.98542 | 14.33019 | 7592 ft | 256 kts | 10° |
| 2026-05-07 01:26 | 78.00295 | 14.34299 | 7314 ft | 253 kts | 10° |
| 2026-05-07 01:26 | 78.02030 | 14.35569 | 7032 ft | 252 kts | 10° |
| 2026-05-07 01:26 | 78.03759 | 14.36839 | 6755 ft | 251 kts | 10° |
| 2026-05-07 01:27 | 78.05482 | 14.38107 | 6469 ft | 250 kts | 10° |
| 2026-05-07 01:27 | 78.07176 | 14.39360 | 6176 ft | 249 kts | 10° |
| 2026-05-07 01:27 | 78.08895 | 14.40633 | 5899 ft | 248 kts | 10° |
| 2026-05-07 01:27 | 78.10600 | 14.41899 | 5613 ft | 247 kts | 10° |
| 2026-05-07 01:28 | 78.12297 | 14.43163 | 5325 ft | 246 kts | 10° |
| 2026-05-07 01:28 | 78.13971 | 14.44413 | 5148 ft | 237 kts | 10° |
| 2026-05-07 01:28 | 78.15582 | 14.45618 | 5029 ft | 230 kts | 10° |
| 2026-05-07 01:28 | 78.17118 | 14.46771 | 4918 ft | 222 kts | 10° |
| 2026-05-07 01:29 | 78.18622 | 14.47903 | 4819 ft | 214 kts | 10° |
| 2026-05-07 01:29 | 78.20070 | 14.48995 | 4723 ft | 206 kts | 10° |
| 2026-05-07 01:29 | 78.21475 | 14.50057 | 4555 ft | 200 kts | 10° |
| 2026-05-07 01:29 | 78.22825 | 14.51079 | 4349 ft | 193 kts | 10° |
| 2026-05-07 01:30 | 78.24131 | 14.52072 | 4138 ft | 186 kts | 11° |
| 2026-05-07 01:30 | 78.25381 | 14.53024 | 3942 ft | 178 kts | 11° |
| 2026-05-07 01:30 | 78.26583 | 14.53941 | 3736 ft | 171 kts | 11° |
| 2026-05-07 01:30 | 78.27735 | 14.54820 | 3555 ft | 163 kts | 11° |
| 2026-05-07 01:31 | 78.28739 | 14.56697 | 3351 ft | 151 kts | 48° |
| 2026-05-07 01:31 | 78.29045 | 14.61383 | 3280 ft | 153 kts | 94° |
| 2026-05-07 01:31 | 78.28926 | 14.66665 | 3116 ft | 157 kts | 96° |
| 2026-05-07 01:31 | 78.28768 | 14.71952 | 3016 ft | 153 kts | 97° |
| 2026-05-07 01:32 | 78.28570 | 14.77045 | 2959 ft | 152 kts | 101° |
| 2026-05-07 01:32 | 78.28307 | 14.82127 | 2807 ft | 152 kts | 103° |
| 2026-05-07 01:32 | 78.28019 | 14.87193 | 2548 ft | 153 kts | 104° |
| 2026-05-07 01:32 | 78.27727 | 14.92225 | 2314 ft | 152 kts | 105° |
| 2026-05-07 01:33 | 78.27438 | 14.97182 | 2092 ft | 151 kts | 105° |
| 2026-05-07 01:33 | 78.27149 | 15.02146 | 1864 ft | 151 kts | 105° |
| 2026-05-07 01:33 | 78.26866 | 15.07040 | 1608 ft | 150 kts | 105° |
| 2026-05-07 01:33 | 78.26583 | 15.11956 | 1378 ft | 149 kts | 105° |
| 2026-05-07 01:34 | 78.26301 | 15.16848 | 1155 ft | 147 kts | 106° |
| 2026-05-07 01:34 | 78.26034 | 15.21503 | 933 ft | 136 kts | 106° |
| 2026-05-07 01:34 | 78.25789 | 15.25810 | 766 ft | 127 kts | 105° |
| 2026-05-07 01:34 | 78.25549 | 15.30102 | 496 ft | 136 kts | 106° |
| 2026-05-07 01:35 | 78.25275 | 15.34751 | 334 ft | 143 kts | 107° |
| 2026-05-07 01:35 | 78.25013 | 15.39278 | 189 ft | 131 kts | 104° |
| 2026-05-07 01:35 | 78.24797 | 15.43396 | 86 ft | 120 kts | 105° |
| 2026-05-07 01:35 | 78.24624 | 15.46426 | 92 ft | 62 kts | 105° |
| 2026-05-07 01:36 | 78.24556 | 15.47627 | 97 ft | 20 kts | 103° |
| 2026-05-07 01:36 | 78.24551 | 15.48018 | 99 ft | 9 kts | 53° |
| 2026-05-07 01:36 | 78.24585 | 15.48283 | 97 ft | 9 kts | 80° |
| 2026-05-07 01:36 | 78.24595 | 15.48594 | 94 ft | 9 kts | 71° |
| 2026-05-07 01:37 | 78.24639 | 15.48748 | 94 ft | 6 kts | 19° |
| 2026-05-07 01:37 | 78.24654 | 15.48923 | 95 ft | 6 kts | 103° |
| 2026-05-07 01:37 | 78.24639 | 15.49124 | 95 ft | 6 kts | 111° |
| 2026-05-07 01:37 | 78.24627 | 15.49325 | 97 ft | 6 kts | 105° |
| 2026-05-07 01:38 | 78.24615 | 15.49523 | 95 ft | 6 kts | 105° |
| 2026-05-07 01:38 | 78.24609 | 15.49633 | 96 ft | 3 kts | 105° |
| 2026-05-07 01:38 | 78.24605 | 15.49708 | 95 ft | 1 kts | 105° |
| 2026-05-07 01:38 | 78.24604 | 15.49737 | 95 ft | 1 kts | 104° |
| 2026-05-07 01:39 | 78.24604 | 15.49740 | 95 ft | 0 kts | 104° |